createdAt,value
2024-04-05T00:01:12.855Z,13.11
2024-04-05T00:03:54.253Z,13.05
2024-04-05T00:06:28.982Z,13.03
2024-04-05T00:08:57.504Z,12.98
2024-04-05T00:11:26.836Z,12.89
2024-04-05T00:13:55.320Z,12.78
2024-04-05T00:16:23.800Z,12.71
2024-04-05T00:18:52.266Z,12.63
2024-04-05T00:21:20.805Z,12.57
2024-04-05T00:23:50.563Z,12.53
2024-04-05T00:26:19.019Z,12.52
2024-04-05T00:28:47.450Z,12.48
2024-04-05T00:31:15.943Z,12.45
2024-04-05T00:33:44.663Z,12.41
2024-04-05T00:36:15.857Z,12.40
2024-04-05T00:38:44.419Z,12.40
2024-04-05T00:41:12.917Z,12.39
2024-04-05T00:43:43.550Z,12.37
2024-04-05T00:46:12.135Z,12.34
2024-04-05T00:48:40.728Z,12.32
2024-04-05T00:51:09.362Z,12.31
2024-04-05T00:53:37.900Z,12.30
2024-04-05T00:56:06.556Z,12.27
2024-04-05T00:58:35.130Z,12.24
2024-04-05T01:01:04.390Z,12.22
2024-04-05T01:03:32.872Z,12.22
2024-04-05T01:06:01.572Z,12.22
2024-04-05T01:08:30.946Z,12.22
2024-04-05T01:10:59.459Z,12.21
2024-04-05T01:13:28.033Z,12.21
2024-04-05T01:15:56.589Z,12.22
2024-04-05T01:18:25.970Z,12.23
2024-04-05T01:20:54.630Z,12.26
2024-04-05T01:23:25.192Z,12.33
2024-04-05T01:25:54.293Z,12.36
2024-04-05T01:28:23.100Z,12.35
2024-04-05T01:30:51.550Z,12.30
2024-04-05T01:33:20.869Z,12.24
2024-04-05T01:35:49.351Z,12.16
2024-04-05T01:38:18.065Z,12.10
2024-04-05T01:40:46.669Z,12.05
2024-04-05T01:43:15.463Z,12.05
2024-04-05T01:45:44.015Z,12.03
2024-04-05T01:48:12.485Z,12.03
2024-04-05T01:50:41.036Z,12.00
2024-04-05T01:53:09.536Z,11.98
2024-04-05T01:55:38.148Z,11.96
2024-04-05T01:58:09.690Z,11.88
2024-04-05T02:00:38.495Z,11.82
2024-04-05T02:03:10.926Z,11.79
2024-04-05T02:05:39.593Z,11.78
2024-04-05T02:08:08.304Z,11.76
2024-04-05T02:10:36.980Z,11.70
2024-04-05T02:13:05.641Z,11.64
2024-04-05T02:15:34.409Z,11.57
2024-04-05T02:18:05.078Z,11.51
2024-04-05T02:20:33.703Z,11.48
2024-04-05T02:23:02.211Z,11.48
2024-04-05T02:25:30.771Z,11.53
2024-04-05T02:27:59.422Z,11.52
2024-04-05T02:30:27.932Z,11.51
2024-04-05T02:32:56.381Z,11.50
2024-04-05T02:35:24.885Z,11.45
2024-04-05T02:37:53.342Z,11.37
2024-04-05T02:40:21.937Z,11.35
2024-04-05T02:42:51.668Z,11.34
2024-04-05T02:45:20.084Z,11.36
2024-04-05T02:47:48.708Z,11.37
2024-04-05T02:50:17.426Z,11.38
2024-04-05T02:52:45.880Z,11.36
2024-04-05T02:55:14.454Z,11.33
2024-04-05T02:57:43.123Z,11.27
2024-04-05T03:00:12.578Z,11.24
2024-04-05T03:02:41.086Z,11.22
2024-04-05T03:05:10.377Z,11.23
2024-04-05T03:07:38.946Z,11.24
2024-04-05T03:10:08.105Z,11.21
2024-04-05T03:12:37.346Z,11.18
2024-04-05T03:15:06.849Z,11.13
2024-04-05T03:17:35.261Z,11.07
2024-04-05T03:20:07.377Z,11.04
2024-04-05T03:22:35.936Z,11.02
2024-04-05T03:25:04.783Z,10.97
2024-04-05T03:27:33.765Z,10.96
2024-04-05T03:30:05.582Z,10.95
2024-04-05T03:32:34.884Z,10.93
2024-04-05T03:35:06.929Z,10.92
2024-04-05T03:37:36.914Z,10.89
2024-04-05T03:40:06.514Z,10.87
2024-04-05T03:42:35.127Z,10.88
2024-04-05T03:45:04.100Z,10.89
2024-04-05T03:47:32.669Z,10.90
2024-04-05T03:50:01.139Z,10.90
2024-04-05T03:52:29.718Z,10.85
2024-04-05T03:54:58.226Z,10.77
2024-04-05T03:57:27.282Z,10.71
2024-04-05T03:59:55.891Z,10.65
2024-04-05T04:02:24.415Z,10.65
2024-04-05T04:04:53.037Z,10.66
2024-04-05T04:07:21.515Z,10.65
2024-04-05T04:09:50.087Z,10.61
2024-04-05T04:12:18.941Z,10.57
2024-04-05T04:14:47.405Z,10.55
2024-04-05T04:17:16.872Z,10.53
2024-04-05T04:19:45.423Z,10.49
2024-04-05T04:22:13.892Z,10.48
2024-04-05T04:24:42.361Z,10.53
2024-04-05T04:27:11.601Z,10.57
2024-04-05T04:29:40.491Z,10.60
2024-04-05T04:32:09.030Z,10.64
2024-04-05T04:34:37.454Z,10.66
2024-04-05T04:37:06.057Z,10.67
2024-04-05T04:39:34.632Z,10.69
2024-04-05T04:42:04.214Z,10.68
2024-04-05T04:44:32.713Z,10.69
2024-04-05T04:47:02.295Z,10.73
2024-04-05T04:49:30.761Z,10.77
2024-04-05T04:51:59.395Z,10.84
2024-04-05T04:54:29.098Z,10.97
2024-04-05T04:56:57.636Z,11.05
2024-04-05T04:59:29.475Z,11.16
2024-04-05T05:01:58.006Z,11.20
2024-04-05T05:04:26.547Z,11.22
2024-04-05T05:06:55.435Z,11.22
2024-04-05T05:09:23.916Z,11.22
2024-04-05T05:11:52.522Z,11.21
2024-04-05T05:14:21.167Z,11.21
2024-04-05T05:16:50.034Z,11.21
2024-04-05T05:19:18.774Z,11.24
2024-04-05T05:21:47.560Z,11.30
2024-04-05T05:24:16.088Z,11.36
2024-04-05T05:26:44.538Z,11.43
2024-04-05T05:29:13.727Z,11.50
2024-04-05T05:31:42.269Z,11.58
2024-04-05T05:34:11.084Z,11.70
2024-04-05T05:36:39.527Z,11.70
2024-04-05T05:39:08.098Z,11.63
2024-04-05T05:41:36.658Z,11.60
2024-04-05T05:44:05.881Z,11.63
2024-04-05T05:46:34.608Z,11.66
2024-04-05T05:49:03.872Z,11.74
2024-04-05T05:51:32.420Z,11.78
2024-04-05T05:54:00.915Z,11.80
2024-04-05T05:56:29.621Z,11.81
2024-04-05T05:58:58.085Z,11.79
2024-04-05T06:01:26.646Z,11.77
2024-04-05T06:03:55.183Z,11.76
2024-04-05T06:06:26.899Z,11.72
2024-04-05T06:08:55.437Z,11.68
2024-04-05T06:11:24.037Z,11.64
2024-04-05T06:13:53.161Z,11.64
2024-04-05T06:16:21.794Z,11.62
2024-04-05T06:18:50.351Z,11.64
2024-04-05T06:21:18.845Z,11.66
2024-04-05T06:23:47.443Z,11.71
2024-04-05T06:26:15.925Z,11.75
2024-04-05T06:28:44.445Z,11.83
2024-04-05T06:31:12.920Z,11.86
2024-04-05T06:33:41.393Z,11.86
2024-04-05T06:36:10.360Z,11.92
2024-04-05T06:38:38.954Z,11.97
2024-04-05T06:41:07.535Z,11.97
2024-04-05T06:43:36.797Z,12.01
2024-04-05T06:46:05.268Z,12.03
2024-04-05T06:48:33.918Z,12.04
2024-04-05T06:51:12.296Z,12.10
2024-04-05T06:53:40.975Z,12.17
2024-04-05T06:56:11.308Z,12.20
2024-04-05T06:58:39.834Z,12.24
2024-04-05T07:01:08.265Z,12.31
2024-04-05T07:03:36.723Z,12.41
2024-04-05T07:06:05.692Z,12.54
2024-04-05T07:08:34.298Z,12.64
2024-04-05T07:11:02.805Z,12.69
2024-04-05T07:13:32.310Z,12.70
2024-04-05T07:16:01.330Z,12.75
2024-04-05T07:18:30.574Z,12.72
2024-04-05T07:21:02.034Z,12.70
2024-04-05T07:23:30.707Z,12.67
2024-04-05T07:25:59.205Z,12.61
2024-04-05T07:28:27.807Z,12.61
2024-04-05T07:30:56.596Z,12.58
2024-04-05T07:33:25.217Z,12.50
2024-04-05T07:35:56.388Z,12.41
2024-04-05T07:38:26.581Z,12.37
2024-04-05T07:41:04.047Z,12.39
2024-04-05T07:43:33.140Z,12.45
2024-04-05T07:46:01.733Z,12.51
2024-04-05T07:48:31.623Z,12.56
2024-04-05T07:51:01.202Z,12.60
2024-04-05T07:53:29.697Z,12.66
2024-04-05T07:56:00.797Z,12.72
2024-04-05T07:58:29.986Z,12.73
2024-04-05T08:00:58.833Z,12.76
2024-04-05T08:03:27.362Z,12.80
2024-04-05T08:05:56.432Z,12.85
2024-04-05T08:08:25.143Z,12.89
2024-04-05T08:11:03.698Z,12.93
2024-04-05T08:13:32.429Z,13.07
2024-04-05T08:16:02.748Z,13.11
2024-04-05T08:18:31.357Z,13.14
2024-04-05T08:21:04.097Z,13.15
2024-04-05T08:23:32.688Z,13.11
2024-04-05T08:26:02.122Z,13.13
2024-04-05T08:28:30.646Z,13.19
2024-04-05T08:30:59.582Z,13.26
2024-04-05T08:33:29.418Z,13.35
2024-04-05T08:35:57.893Z,13.38
2024-04-05T08:38:26.542Z,13.37
2024-04-05T08:40:55.854Z,13.38
2024-04-05T08:43:27.896Z,13.48
2024-04-05T08:45:56.749Z,13.54
2024-04-05T08:48:26.896Z,13.67
2024-04-05T08:50:56.116Z,13.74
2024-04-05T08:53:24.579Z,13.78
2024-04-05T08:55:53.803Z,13.88
2024-04-05T08:58:22.928Z,13.93
2024-04-05T09:00:52.284Z,13.98
2024-04-05T09:03:20.770Z,13.95
2024-04-05T09:05:50.531Z,13.97
2024-04-05T09:08:19.279Z,14.00
2024-04-05T09:10:54.035Z,14.11
2024-04-05T09:13:22.876Z,14.21
2024-04-05T09:15:52.631Z,14.30
2024-04-05T09:18:26.154Z,14.32
2024-04-05T09:20:56.498Z,14.45
2024-04-05T09:23:24.982Z,14.55
2024-04-05T09:26:03.117Z,14.68
2024-04-05T09:28:31.649Z,14.80
2024-04-05T09:31:00.414Z,14.81
2024-04-05T09:33:29.214Z,14.83
2024-04-05T09:35:59.714Z,14.82
2024-04-05T09:38:30.956Z,14.87
2024-04-05T09:41:00.926Z,14.92
2024-04-05T09:43:32.342Z,14.91
2024-04-05T09:46:05.392Z,14.94
2024-04-05T09:48:35.210Z,14.99
2024-04-05T09:51:14.672Z,15.07
2024-04-05T09:53:47.617Z,15.12
2024-04-05T09:56:21.754Z,15.12
2024-04-05T09:58:51.118Z,15.11
2024-04-05T10:01:20.673Z,15.03
2024-04-05T10:03:49.189Z,14.91
2024-04-05T10:06:19.098Z,14.82
2024-04-05T10:08:47.672Z,14.75
2024-04-05T10:11:16.608Z,14.73
2024-04-05T10:13:45.438Z,14.73
2024-04-05T10:16:14.063Z,14.77
2024-04-05T10:18:43.469Z,14.84
2024-04-05T10:21:13.440Z,14.91
2024-04-05T10:23:49.483Z,14.94
2024-04-05T10:26:19.444Z,14.93
2024-04-05T10:28:48.020Z,14.98
2024-04-05T10:31:16.551Z,15.12
2024-04-05T10:33:46.490Z,15.19
2024-04-05T10:36:15.392Z,15.23
2024-04-05T10:38:49.703Z,15.33
2024-04-05T10:41:19.941Z,15.55
2024-04-05T10:43:49.404Z,15.75
2024-04-05T10:46:18.997Z,15.96
2024-04-05T10:48:57.520Z,16.12
2024-04-05T10:51:26.758Z,16.24
2024-04-05T10:53:56.652Z,16.23
2024-04-05T10:56:25.533Z,16.22
2024-04-05T10:58:54.684Z,16.24
2024-04-05T11:01:23.222Z,16.21
2024-04-05T11:03:55.226Z,16.12
2024-04-05T11:06:23.882Z,16.01
2024-04-05T11:08:53.104Z,15.91
2024-04-05T11:11:22.963Z,15.85
2024-04-05T11:14:04.496Z,15.75
2024-04-05T11:16:33.874Z,15.70
2024-04-05T11:19:05.666Z,15.67
2024-04-05T11:21:34.902Z,15.61
2024-04-05T11:24:03.565Z,15.60
2024-04-05T11:26:32.699Z,15.61
2024-04-05T11:29:01.935Z,15.64
2024-04-05T11:31:33.081Z,15.68
2024-04-05T11:34:01.791Z,15.73
2024-04-05T11:36:30.340Z,15.81
2024-04-05T11:38:58.847Z,15.90
2024-04-05T11:41:27.933Z,15.93
2024-04-05T11:43:56.754Z,15.96
2024-04-05T11:46:25.921Z,16.00
2024-04-05T11:48:57.068Z,15.99
2024-04-05T11:51:27.768Z,16.02
2024-04-05T11:53:56.268Z,16.09
2024-04-05T11:56:24.849Z,16.13
2024-04-05T11:58:53.366Z,16.18
2024-04-05T12:01:22.312Z,16.24
2024-04-05T12:03:50.821Z,16.27
2024-04-05T12:06:20.202Z,16.31
2024-04-05T12:08:48.702Z,16.38
2024-04-05T12:11:17.305Z,16.40
2024-04-05T12:13:50.331Z,16.42
2024-04-05T12:16:19.073Z,16.40
2024-04-05T12:18:47.610Z,16.31
2024-04-05T12:21:16.121Z,16.22
2024-04-05T12:23:45.793Z,16.15
2024-04-05T12:26:16.762Z,16.08
2024-04-05T12:28:46.201Z,16.00
2024-04-05T12:31:14.834Z,15.90
2024-04-05T12:33:43.483Z,15.86
2024-04-05T12:36:14.477Z,15.89
2024-04-05T12:38:45.523Z,15.94
2024-04-05T12:41:14.489Z,16.04
2024-04-05T12:43:43.225Z,16.13
2024-04-05T12:46:16.992Z,16.20
2024-04-05T12:48:46.726Z,16.28
2024-04-05T12:51:15.374Z,16.30
2024-04-05T12:53:43.902Z,16.26
2024-04-05T12:56:13.986Z,16.26
2024-04-05T12:58:48.544Z,16.35
2024-04-05T13:01:17.848Z,16.46
2024-04-05T13:03:46.906Z,16.64
2024-04-05T13:06:15.757Z,16.86
2024-04-05T13:08:44.376Z,17.10
2024-04-05T13:11:15.211Z,17.28
2024-04-05T13:13:45.355Z,17.43
2024-04-05T13:16:14.076Z,17.54
2024-04-05T13:18:44.058Z,17.63
2024-04-05T13:21:14.789Z,17.67
2024-04-05T13:23:44.677Z,17.68
2024-04-05T13:26:21.189Z,17.70
2024-04-05T13:28:51.346Z,17.73
2024-04-05T13:31:24.553Z,17.79
2024-04-05T13:33:52.998Z,17.85
2024-04-05T13:36:22.457Z,17.90
2024-04-05T13:38:52.504Z,18.01
2024-04-05T13:41:21.123Z,18.06
2024-04-05T13:43:49.688Z,18.21
2024-04-05T13:46:19.615Z,18.43
2024-04-05T13:48:54.900Z,18.63
2024-04-05T13:51:27.980Z,18.72
2024-04-05T13:53:57.449Z,18.88
2024-04-05T13:56:26.227Z,19.00
2024-04-05T13:58:54.767Z,19.09
2024-04-05T14:01:24.591Z,19.13
2024-04-05T14:03:53.776Z,19.10
2024-04-05T14:06:22.545Z,19.01
2024-04-05T14:08:52.384Z,18.94
2024-04-05T14:11:20.979Z,18.94
2024-04-05T14:13:52.998Z,18.95
2024-04-05T14:16:21.657Z,18.96
2024-04-05T14:18:53.773Z,18.72
2024-04-05T14:21:23.401Z,18.43
2024-04-05T14:23:51.859Z,18.21
2024-04-05T14:26:21.958Z,18.10
2024-04-05T14:28:50.585Z,18.11
2024-04-05T14:31:19.090Z,18.24
2024-04-05T14:33:58.304Z,18.42
2024-04-05T14:36:28.620Z,18.59
2024-04-05T14:38:57.221Z,18.73
2024-04-05T14:41:26.258Z,18.85
2024-04-05T14:43:56.264Z,18.84
2024-04-05T14:46:25.758Z,18.83
2024-04-05T14:48:54.323Z,18.88
2024-04-05T14:51:22.776Z,18.95
2024-04-05T14:53:54.122Z,18.99
2024-04-05T14:56:22.994Z,19.04
2024-04-05T14:58:51.547Z,19.03
2024-04-05T15:01:20.004Z,19.00
2024-04-05T15:03:48.693Z,19.01
2024-04-05T15:06:17.888Z,18.98
2024-04-05T15:08:47.969Z,18.91
2024-04-05T15:11:17.677Z,18.88
2024-04-05T15:13:46.308Z,18.90
2024-04-05T15:16:15.228Z,18.93
2024-04-05T15:18:44.318Z,19.00
2024-04-05T15:21:12.836Z,19.06
2024-04-05T15:23:41.790Z,19.17
2024-04-05T15:26:10.377Z,19.29
2024-04-05T15:28:41.092Z,19.43
2024-04-05T15:31:09.787Z,19.54
2024-04-05T15:33:42.734Z,19.67
2024-04-05T15:36:13.113Z,19.75
2024-04-05T15:38:46.371Z,19.84
2024-04-05T15:41:14.974Z,19.93
2024-04-05T15:43:44.733Z,20.00
2024-04-05T15:46:17.190Z,20.04
2024-04-05T15:48:46.073Z,20.08
2024-04-05T15:51:15.015Z,20.13
2024-04-05T15:53:48.476Z,20.12
2024-04-05T15:56:17.025Z,20.13
2024-04-05T15:58:46.810Z,20.13
2024-04-05T16:01:16.174Z,20.11
2024-04-05T16:03:44.883Z,20.06
2024-04-05T16:06:15.000Z,19.98
2024-04-05T16:08:44.419Z,19.87
2024-04-05T16:11:13.296Z,19.72
2024-04-05T16:13:42.019Z,19.58
2024-04-05T16:16:11.377Z,19.42
2024-04-05T16:18:43.478Z,19.25
2024-04-05T16:21:13.597Z,19.06
2024-04-05T16:23:43.474Z,18.88
2024-04-05T16:26:13.201Z,18.73
2024-04-05T16:28:44.337Z,18.56
2024-04-05T16:31:16.045Z,18.40
2024-04-05T16:33:45.742Z,18.25
2024-04-05T16:36:14.692Z,18.13
2024-04-05T16:38:43.876Z,18.00
2024-04-05T16:41:18.507Z,17.90
2024-04-05T16:43:47.030Z,17.78
2024-04-05T16:46:19.984Z,17.66
2024-04-05T16:48:48.596Z,17.54
2024-04-05T16:51:18.654Z,17.45
2024-04-05T16:53:53.681Z,17.33
2024-04-05T16:56:23.290Z,17.23
2024-04-05T16:58:51.851Z,17.15
2024-04-05T17:01:22.227Z,17.06
2024-04-05T17:03:51.030Z,16.97
2024-04-05T17:06:22.798Z,16.89
2024-04-05T17:08:52.877Z,16.82
2024-04-05T17:11:22.805Z,16.73
2024-04-05T17:13:56.583Z,16.66
2024-04-05T17:16:25.284Z,16.58
2024-04-05T17:18:53.880Z,16.53
2024-04-05T17:21:22.523Z,16.47
2024-04-05T17:23:51.370Z,16.41
2024-04-05T17:26:20.301Z,16.36
2024-04-05T17:28:48.802Z,16.30
2024-04-05T17:31:19.099Z,16.26
2024-04-05T17:33:48.101Z,16.21
2024-04-05T17:36:17.058Z,16.17
2024-04-05T17:38:50.528Z,16.12
2024-04-05T17:41:19.186Z,16.07
2024-04-05T17:43:48.835Z,16.03
2024-04-05T17:46:18.121Z,15.98
2024-04-05T17:48:47.229Z,15.94
2024-04-05T17:51:15.843Z,15.91
2024-04-05T17:53:45.404Z,15.88
2024-04-05T17:56:13.913Z,15.85
2024-04-05T17:58:45.363Z,15.81
2024-04-05T18:01:14.165Z,15.77
2024-04-05T18:03:43.528Z,15.74
2024-04-05T18:06:12.328Z,15.71
2024-04-05T18:08:42.881Z,15.68
2024-04-05T18:11:11.922Z,15.64
2024-04-05T18:13:40.526Z,15.62
2024-04-05T18:16:09.101Z,15.59
2024-04-05T18:18:37.604Z,15.56
2024-04-05T18:21:06.166Z,15.53
2024-04-05T18:23:34.792Z,15.51
2024-04-05T18:26:04.482Z,15.48
2024-04-05T18:28:33.008Z,15.44
2024-04-05T18:31:01.628Z,15.40
2024-04-05T18:33:31.502Z,15.37
2024-04-05T18:36:07.959Z,15.33
2024-04-05T18:38:37.447Z,15.33
2024-04-05T18:41:08.366Z,15.29
2024-04-05T18:43:37.024Z,15.26
2024-04-05T18:46:06.211Z,15.23
2024-04-05T18:48:37.081Z,15.20
2024-04-05T18:51:32.626Z,15.17
2024-04-05T18:54:02.373Z,15.12
2024-04-05T18:56:31.043Z,15.07
2024-04-05T18:59:00.633Z,15.02
2024-04-05T19:01:30.190Z,14.98
2024-04-05T19:04:02.428Z,14.96
2024-04-05T19:06:33.251Z,14.92
2024-04-05T19:09:02.427Z,14.88
2024-04-05T19:11:38.331Z,14.86
2024-04-05T19:14:08.890Z,14.84
2024-04-05T19:16:37.673Z,14.81
2024-04-05T19:19:11.707Z,14.79
2024-04-05T19:21:43.049Z,14.76
2024-04-05T19:24:12.451Z,14.73
2024-04-05T19:26:41.131Z,14.68
2024-04-05T19:29:10.482Z,14.66
2024-04-05T19:31:39.072Z,14.62
2024-04-05T19:34:07.677Z,14.60
2024-04-05T19:36:37.974Z,14.57
2024-04-05T19:39:06.942Z,14.53
2024-04-05T19:41:35.530Z,14.52
2024-04-05T19:44:04.521Z,14.49
2024-04-05T19:46:33.486Z,14.46
2024-04-05T19:49:04.946Z,14.41
2024-04-05T19:51:33.653Z,14.42
2024-04-05T19:54:02.343Z,14.38
2024-04-05T19:56:31.110Z,14.37
2024-04-05T19:59:00.983Z,14.35
2024-04-05T20:01:30.572Z,14.34
2024-04-05T20:04:03.737Z,14.33
2024-04-05T20:06:32.294Z,14.31
2024-04-05T20:09:01.372Z,14.30
2024-04-05T20:11:30.171Z,14.29
2024-04-05T20:14:00.149Z,14.28
2024-04-05T20:16:28.823Z,14.27
2024-04-05T20:18:58.943Z,14.27
2024-04-05T20:21:27.897Z,14.27
2024-04-05T20:24:11.174Z,14.28
2024-04-05T20:26:41.403Z,14.28
2024-04-05T20:29:29.258Z,14.25
2024-04-05T20:32:16.798Z,14.29
2024-04-05T20:34:45.294Z,14.30
2024-04-05T20:37:13.856Z,14.31
2024-04-05T20:39:42.504Z,14.32
2024-04-05T20:42:11.089Z,14.33
2024-04-05T20:44:40.180Z,14.34
2024-04-05T20:47:08.758Z,14.35
2024-04-05T20:49:39.407Z,14.36
2024-04-05T20:52:08.355Z,14.36
2024-04-05T20:54:37.934Z,14.36
2024-04-05T20:57:08.167Z,14.35
2024-04-05T20:59:37.589Z,14.37
2024-04-05T21:02:06.614Z,14.36
2024-04-05T21:04:35.140Z,14.34
2024-04-05T21:07:04.698Z,14.36
2024-04-05T21:09:33.208Z,14.37
2024-04-05T21:12:01.898Z,14.36
2024-04-05T21:14:30.379Z,14.35
2024-04-05T21:17:00.204Z,14.34
2024-04-05T21:19:28.846Z,14.32
2024-04-05T21:21:57.790Z,14.33
2024-04-05T21:24:26.343Z,14.34
2024-04-05T21:26:57.485Z,14.34
2024-04-05T21:29:26.164Z,14.34
2024-04-05T21:31:54.636Z,14.32
2024-04-05T21:34:23.162Z,14.32
2024-04-05T21:36:51.637Z,14.30
2024-04-05T21:39:22.381Z,14.32
2024-04-05T21:41:52.789Z,14.31
2024-04-05T21:44:23.464Z,14.31
2024-04-05T21:46:54.920Z,14.32
2024-04-05T21:51:55.337Z,14.32
2024-04-05T21:54:23.799Z,14.34
2024-04-05T21:56:52.524Z,14.34
2024-04-05T21:59:42.818Z,14.35
2024-04-05T22:02:13.100Z,14.34
2024-04-05T22:04:42.148Z,14.36
2024-04-05T22:07:11.237Z,14.38
2024-04-05T22:09:39.969Z,14.40
2024-04-05T22:12:11.394Z,14.42
2024-04-05T22:14:53.685Z,14.44
2024-04-05T22:17:22.375Z,14.45
2024-04-05T22:19:50.890Z,14.47
2024-04-05T22:22:19.405Z,14.49
2024-04-05T22:24:47.964Z,14.50
2024-04-05T22:27:16.447Z,14.54
2024-04-05T22:29:45.242Z,14.57
2024-04-05T22:32:13.826Z,14.59
2024-04-05T22:34:42.271Z,14.62
2024-04-05T22:37:10.701Z,14.69
2024-04-05T22:39:39.384Z,14.76
2024-04-05T22:42:08.606Z,14.82
2024-04-05T22:44:37.058Z,14.86
2024-04-05T22:47:05.933Z,14.90
2024-04-05T22:49:34.366Z,14.94
2024-04-05T22:52:02.924Z,14.96
2024-04-05T22:54:32.058Z,14.97
2024-04-05T22:57:00.532Z,14.99
2024-04-05T22:59:29.294Z,15.00
2024-04-05T23:01:57.874Z,14.99
2024-04-05T23:04:26.895Z,15.02
2024-04-05T23:06:55.512Z,15.03
2024-04-05T23:09:24.121Z,15.04
2024-04-05T23:11:52.596Z,15.03
2024-04-05T23:14:21.166Z,15.03
2024-04-05T23:16:50.118Z,15.05
2024-04-05T23:19:18.608Z,15.04
2024-04-05T23:21:47.144Z,15.01
2024-04-05T23:24:17.779Z,14.99
2024-04-05T23:26:47.985Z,15.01
2024-04-05T23:29:16.542Z,15.05
2024-04-05T23:31:45.048Z,15.06
2024-04-05T23:34:13.693Z,15.06
2024-04-05T23:36:44.296Z,15.02
2024-04-05T23:39:13.287Z,14.99
2024-04-05T23:41:41.899Z,14.95
2024-04-05T23:44:10.385Z,14.90
2024-04-05T23:46:38.939Z,14.85
2024-04-05T23:49:07.401Z,14.81
2024-04-05T23:51:35.989Z,14.76
2024-04-05T23:54:04.851Z,14.76
2024-04-05T23:56:44.250Z,14.77
2024-04-05T23:59:12.889Z,14.74
